Burna, Kentucky
Current Conditions -  °F | °C
As of 10:15 AM on Friday 24 Oct 2014 (Local Time) from K5M9 Reporting Station
Clear Clear  
Wind Chill: 58°   Ceiling: Unl
Heat Index: 58°   Visibility: 10mi
Dew Point: 48°   Wind: 3mph
Humidity: 70%   Direction: 270°W
Pressure: 30.14"   Gusts: NA
Location:  37.25°N, 88.36°W
Report Text: K5M9 241515Z AUTO 27003KT 10SM CLR 14/09 A3014 RMK AO2 T01420087
Loading
Personal Weather Stations






























Interactive Weather Map
Tropical Storm Tracking
New forecast layout! Learn more

10-Day Weather Forecast

Advertisements
Track Severe Weather on mobile